createdAt,value
2019-03-11T00:00:01.982Z,75.12
2019-03-11T00:02:31.177Z,75.26
2019-03-11T00:05:00.401Z,75.37
2019-03-11T00:07:29.659Z,75.73
2019-03-11T00:09:58.874Z,75.55
2019-03-11T00:12:28.071Z,75.58
2019-03-11T00:14:57.287Z,75.57
2019-03-11T00:17:26.528Z,75.21
2019-03-11T00:19:55.740Z,75.75
2019-03-11T00:22:24.937Z,75.82
2019-03-11T00:24:54.153Z,76.10
2019-03-11T00:27:23.362Z,76.06
2019-03-11T00:29:52.670Z,76.07
2019-03-11T00:32:21.863Z,75.71
2019-03-11T00:34:51.063Z,75.90
2019-03-11T00:37:20.314Z,75.77
2019-03-11T00:39:49.492Z,75.81
2019-03-11T00:42:18.696Z,75.97
2019-03-11T00:44:47.907Z,75.61
2019-03-11T00:47:17.122Z,75.84
2019-03-11T00:49:46.328Z,75.83
2019-03-11T00:52:15.520Z,75.48
2019-03-11T00:54:44.708Z,75.73
2019-03-11T00:57:13.896Z,75.70
2019-03-11T00:59:43.062Z,75.87
2019-03-11T01:02:12.268Z,75.99
2019-03-11T01:04:41.444Z,76.01
2019-03-11T01:07:10.728Z,75.75
2019-03-11T01:09:39.918Z,75.58
2019-03-11T01:12:09.110Z,75.37
2019-03-11T01:14:38.339Z,75.40
2019-03-11T01:17:07.538Z,75.42
2019-03-11T01:19:36.741Z,75.57
2019-03-11T01:22:05.954Z,75.56
2019-03-11T01:24:35.138Z,75.66
2019-03-11T01:27:04.351Z,75.64
2019-03-11T01:29:33.651Z,75.47
2019-03-11T01:32:02.860Z,75.41
2019-03-11T01:34:32.044Z,75.37
2019-03-11T01:37:01.267Z,75.30
2019-03-11T01:39:30.451Z,75.23
2019-03-11T01:41:59.651Z,75.31
2019-03-11T01:44:28.828Z,75.41
2019-03-11T01:46:58.049Z,75.43
2019-03-11T01:49:27.227Z,75.52
2019-03-11T01:51:56.429Z,75.54
2019-03-11T01:54:25.635Z,75.48
2019-03-11T01:56:54.815Z,75.42
2019-03-11T01:59:24.019Z,75.79
2019-03-11T02:01:53.219Z,75.67
2019-03-11T02:04:22.432Z,75.74
2019-03-11T02:06:51.625Z,75.98
2019-03-11T02:09:20.815Z,76.15
2019-03-11T02:11:50.015Z,75.97
2019-03-11T02:14:19.211Z,75.93
2019-03-11T02:16:48.412Z,76.20
2019-03-11T02:19:17.610Z,76.19
2019-03-11T02:21:46.854Z,76.66
2019-03-11T02:24:16.068Z,76.42
2019-03-11T02:26:45.271Z,76.35
2019-03-11T02:29:14.495Z,77.05
2019-03-11T02:31:43.678Z,77.06
2019-03-11T02:34:12.882Z,77.07
2019-03-11T02:36:42.076Z,76.83
2019-03-11T02:39:12.590Z,76.61
2019-03-11T02:41:41.789Z,76.83
2019-03-11T02:44:10.963Z,76.83
2019-03-11T02:46:40.187Z,76.12
2019-03-11T02:49:09.370Z,76.39
2019-03-11T02:51:38.649Z,76.35
2019-03-11T02:54:07.832Z,76.26
2019-03-11T02:56:37.027Z,76.56
2019-03-11T02:59:06.247Z,76.16
2019-03-11T03:01:53.097Z,76.58
2019-03-11T03:04:29.407Z,76.26
2019-03-11T03:06:58.557Z,76.77
2019-03-11T03:09:27.800Z,76.97
2019-03-11T03:11:57.002Z,77.03
2019-03-11T03:14:26.264Z,76.90
2019-03-11T03:16:55.434Z,76.99
2019-03-11T03:19:24.629Z,77.13
2019-03-11T03:21:53.792Z,77.08
2019-03-11T03:24:22.996Z,76.83
2019-03-11T03:26:52.175Z,76.78
2019-03-11T03:29:21.373Z,77.13
2019-03-11T03:31:50.568Z,77.45
2019-03-11T03:34:19.795Z,77.64
2019-03-11T03:36:48.988Z,77.73
2019-03-11T03:39:18.191Z,77.79
2019-03-11T03:41:47.406Z,77.71
2019-03-11T03:44:16.592Z,78.05
2019-03-11T03:46:45.779Z,77.98
2019-03-11T03:49:15.013Z,77.37
2019-03-11T03:51:44.218Z,77.28
2019-03-11T03:54:13.404Z,77.13
2019-03-11T03:56:42.586Z,76.98
2019-03-11T03:59:11.811Z,77.29
2019-03-11T04:01:40.955Z,77.23
2019-03-11T04:04:10.301Z,77.17
2019-03-11T04:06:39.510Z,77.58
2019-03-11T04:09:08.782Z,77.79
2019-03-11T04:11:38.046Z,77.67
2019-03-11T04:14:07.197Z,77.23
2019-03-11T04:16:36.408Z,76.72
2019-03-11T04:19:05.612Z,77.21
2019-03-11T04:21:34.810Z,76.64
2019-03-11T04:24:04.308Z,76.63
2019-03-11T04:26:33.493Z,77.16
2019-03-11T04:29:02.678Z,76.68
2019-03-11T04:31:31.867Z,76.68
2019-03-11T04:34:01.083Z,76.82
2019-03-11T04:36:30.286Z,76.85
2019-03-11T04:38:59.484Z,76.99
2019-03-11T04:41:28.774Z,76.67
2019-03-11T04:43:57.970Z,76.53
2019-03-11T04:46:27.214Z,76.73
2019-03-11T04:48:56.396Z,76.77
2019-03-11T04:51:25.592Z,76.85
2019-03-11T04:53:54.786Z,77.04
2019-03-11T04:56:23.982Z,76.65
2019-03-11T04:58:53.222Z,76.78
2019-03-11T05:01:22.423Z,76.63
2019-03-11T05:03:51.621Z,76.79
2019-03-11T05:06:20.811Z,76.69
2019-03-11T05:08:50.000Z,75.96
2019-03-11T05:11:19.219Z,76.31
2019-03-11T05:13:48.543Z,76.63
2019-03-11T05:16:17.817Z,76.43
2019-03-11T05:18:47.037Z,76.62
2019-03-11T05:21:16.231Z,75.94
2019-03-11T05:23:45.431Z,75.80
2019-03-11T05:26:14.632Z,75.64
2019-03-11T05:28:43.840Z,75.25
2019-03-11T05:31:13.033Z,75.20
2019-03-11T05:33:42.279Z,75.29
2019-03-11T05:36:11.457Z,75.43
2019-03-11T05:38:40.658Z,75.42
2019-03-11T05:41:09.847Z,75.28
2019-03-11T05:43:39.056Z,74.78
2019-03-11T05:46:08.269Z,74.59
2019-03-11T05:48:37.604Z,74.22
2019-03-11T05:51:06.835Z,74.15
2019-03-11T05:53:36.018Z,74.11
2019-03-11T05:56:05.225Z,74.04
2019-03-11T05:58:34.548Z,73.93
2019-03-11T06:01:03.752Z,74.11
2019-03-11T06:03:32.959Z,74.07
2019-03-11T06:06:02.146Z,74.39
2019-03-11T06:08:31.388Z,74.51
2019-03-11T06:11:00.618Z,74.51
2019-03-11T06:13:35.842Z,74.22
2019-03-11T06:16:02.294Z,74.12
2019-03-11T06:18:40.936Z,73.95
2019-03-11T06:21:27.933Z,73.98
2019-03-11T06:23:57.130Z,73.79
2019-03-11T06:26:26.352Z,73.78
2019-03-11T06:28:55.627Z,73.84
2019-03-11T06:31:24.841Z,73.88
2019-03-11T06:33:54.053Z,73.41
2019-03-11T06:36:23.323Z,73.73
2019-03-11T06:38:52.535Z,72.89
2019-03-11T06:41:21.719Z,72.83
2019-03-11T06:43:50.991Z,72.61
2019-03-11T06:46:20.190Z,72.25
2019-03-11T06:48:49.419Z,71.76
2019-03-11T06:51:18.610Z,71.53
2019-03-11T06:53:47.793Z,71.93
2019-03-11T06:56:17.043Z,72.21
2019-03-11T06:58:46.255Z,72.70
2019-03-11T07:01:15.458Z,73.65
2019-03-11T07:03:44.703Z,74.12
2019-03-11T07:06:13.882Z,73.26
2019-03-11T07:08:43.076Z,73.02
2019-03-11T07:11:12.295Z,74.14
2019-03-11T07:13:41.642Z,74.37
2019-03-11T07:16:10.845Z,74.67
2019-03-11T07:18:40.132Z,74.54
2019-03-11T07:21:09.314Z,74.38
2019-03-11T07:23:38.526Z,75.13
2019-03-11T07:26:07.742Z,75.13
2019-03-11T07:28:36.908Z,75.07
2019-03-11T07:31:06.110Z,75.25
2019-03-11T07:33:35.305Z,74.97
2019-03-11T07:36:04.659Z,75.04
2019-03-11T07:38:33.882Z,75.57
2019-03-11T07:41:03.066Z,75.64
2019-03-11T07:43:32.354Z,75.36
2019-03-11T07:46:01.702Z,74.73
2019-03-11T07:48:30.889Z,74.65
2019-03-11T07:51:00.085Z,74.62
2019-03-11T07:53:29.287Z,73.91
2019-03-11T07:55:58.671Z,74.00
2019-03-11T07:58:27.875Z,73.35
2019-03-11T08:00:57.058Z,73.26
2019-03-11T08:03:26.273Z,73.40
2019-03-11T08:05:55.445Z,73.37
2019-03-11T08:08:24.715Z,73.92
2019-03-11T08:10:53.940Z,73.89
2019-03-11T08:13:23.154Z,73.09
2019-03-11T08:15:52.340Z,72.66
2019-03-11T08:18:21.537Z,72.82
2019-03-11T08:20:50.743Z,70.99
2019-03-11T08:23:19.984Z,70.59
2019-03-11T08:25:49.209Z,70.17
2019-03-11T08:28:18.395Z,69.58
2019-03-11T08:30:47.994Z,70.28
2019-03-11T08:33:17.186Z,70.51
2019-03-11T08:35:46.382Z,70.56
2019-03-11T08:38:15.600Z,70.93
2019-03-11T08:40:44.857Z,69.78
2019-03-11T08:43:14.106Z,69.32
2019-03-11T08:45:43.302Z,70.69
2019-03-11T08:48:12.510Z,70.54
2019-03-11T08:50:41.707Z,70.97
2019-03-11T08:53:10.932Z,68.27
2019-03-11T08:55:40.143Z,64.94
2019-03-11T08:58:09.335Z,60.26
2019-03-11T09:00:38.565Z,58.86
2019-03-11T09:03:07.751Z,57.97
2019-03-11T09:05:36.995Z,59.08
2019-03-11T09:08:06.233Z,61.72
2019-03-11T09:10:35.459Z,63.51
2019-03-11T09:13:04.665Z,65.51
2019-03-11T09:15:33.946Z,67.46
2019-03-11T09:18:03.129Z,68.16
2019-03-11T09:20:32.321Z,69.04
2019-03-11T09:23:01.513Z,69.82
2019-03-11T09:25:30.733Z,70.41
2019-03-11T09:27:59.951Z,71.32
2019-03-11T09:30:29.124Z,71.40
2019-03-11T09:32:58.293Z,71.90
2019-03-11T09:35:27.510Z,72.04
2019-03-11T09:37:56.709Z,72.20
2019-03-11T09:40:25.906Z,72.40
2019-03-11T09:42:55.114Z,72.46
2019-03-11T09:45:24.679Z,72.22
2019-03-11T09:47:54.741Z,72.26
2019-03-11T09:50:24.004Z,72.63
2019-03-11T09:52:56.219Z,72.49
2019-03-11T09:55:25.422Z,72.60
2019-03-11T09:57:54.636Z,73.19
2019-03-11T10:00:23.842Z,73.07
2019-03-11T10:02:53.728Z,72.88
2019-03-11T10:05:23.126Z,72.88
2019-03-11T10:07:52.381Z,73.23
2019-03-11T10:10:21.660Z,72.79
2019-03-11T10:12:50.857Z,72.59
2019-03-11T10:15:20.101Z,72.92
2019-03-11T10:17:49.276Z,72.71
2019-03-11T10:20:18.628Z,72.25
2019-03-11T10:22:48.232Z,72.48
2019-03-11T10:25:17.983Z,72.85
2019-03-11T10:27:47.457Z,72.99
2019-03-11T10:30:17.575Z,72.96
2019-03-11T10:32:47.386Z,73.11
2019-03-11T10:35:31.382Z,73.12
2019-03-11T10:37:47.653Z,73.33
2019-03-11T10:40:18.562Z,72.75
2019-03-11T10:42:47.741Z,72.61
2019-03-11T10:45:17.192Z,72.80
2019-03-11T10:47:46.577Z,72.07
2019-03-11T10:50:15.785Z,72.20
2019-03-11T10:52:45.230Z,72.02
2019-03-11T10:55:14.675Z,71.12
2019-03-11T10:57:43.905Z,70.89
2019-03-11T11:00:19.140Z,70.05
2019-03-11T11:02:48.344Z,70.28
2019-03-11T11:05:17.540Z,69.90
2019-03-11T11:07:46.788Z,69.75
2019-03-11T11:10:16.004Z,68.94
2019-03-11T11:12:45.265Z,69.63
2019-03-11T11:15:17.217Z,69.09
2019-03-11T11:18:06.784Z,69.43
2019-03-11T11:20:35.994Z,70.27
2019-03-11T11:23:05.352Z,70.70
2019-03-11T11:25:34.559Z,70.52
2019-03-11T11:28:03.836Z,70.25
2019-03-11T11:30:33.056Z,70.44
2019-03-11T11:33:02.266Z,70.85
2019-03-11T11:35:31.534Z,70.28
2019-03-11T11:38:00.725Z,70.29
2019-03-11T11:40:32.864Z,69.67
2019-03-11T11:43:02.136Z,69.62
2019-03-11T11:45:31.403Z,69.69
2019-03-11T11:48:00.884Z,69.28
2019-03-11T11:50:30.055Z,69.77
2019-03-11T11:52:59.253Z,69.39
2019-03-11T11:55:28.519Z,69.04
2019-03-11T11:57:57.798Z,69.06
2019-03-11T12:00:29.160Z,68.30
2019-03-11T12:02:58.477Z,68.92
2019-03-11T12:05:27.792Z,69.26
2019-03-11T12:07:57.033Z,69.57
2019-03-11T12:10:26.246Z,69.43
2019-03-11T12:12:55.750Z,69.40
2019-03-11T12:15:25.060Z,69.48
2019-03-11T12:17:54.371Z,69.47
2019-03-11T12:20:23.990Z,69.81
2019-03-11T12:22:53.176Z,70.30
2019-03-11T12:25:22.422Z,70.11
2019-03-11T12:27:54.128Z,70.33
2019-03-11T12:30:24.723Z,70.85
2019-03-11T12:32:53.933Z,71.18
2019-03-11T12:35:23.262Z,71.34
2019-03-11T12:37:52.720Z,71.46
2019-03-11T12:40:22.027Z,71.81
2019-03-11T12:42:51.636Z,71.37
2019-03-11T12:45:20.921Z,71.57
2019-03-11T12:47:50.331Z,72.17
2019-03-11T12:50:20.445Z,72.09
2019-03-11T12:52:50.146Z,72.31
2019-03-11T12:55:21.371Z,72.86
2019-03-11T12:57:50.391Z,72.05
2019-03-11T13:00:20.059Z,72.34
2019-03-11T13:02:49.495Z,72.91
2019-03-11T13:05:19.116Z,73.16
2019-03-11T13:07:48.347Z,73.49
2019-03-11T13:10:18.811Z,73.60
2019-03-11T13:12:48.127Z,73.46
2019-03-11T13:15:17.462Z,73.49
2019-03-11T13:17:46.834Z,73.52
2019-03-11T13:20:25.484Z,73.86
2019-03-11T13:22:54.744Z,73.50
2019-03-11T13:25:23.954Z,73.49
2019-03-11T13:27:53.171Z,73.71
2019-03-11T13:30:22.590Z,73.70
2019-03-11T13:32:51.771Z,74.20
2019-03-11T13:35:21.048Z,73.85
2019-03-11T13:37:50.332Z,73.41
2019-03-11T13:40:19.559Z,73.75
2019-03-11T13:42:48.776Z,73.74
2019-03-11T13:45:18.035Z,74.60
2019-03-11T13:47:47.254Z,74.08
2019-03-11T13:50:16.483Z,74.05
2019-03-11T13:52:45.727Z,74.76
2019-03-11T13:55:15.985Z,74.29
2019-03-11T13:57:45.211Z,73.08
2019-03-11T14:00:14.557Z,73.63
2019-03-11T14:02:43.771Z,73.50
2019-03-11T14:05:13.055Z,73.09
2019-03-11T14:07:42.293Z,72.61
2019-03-11T14:10:11.565Z,72.27
2019-03-11T14:12:40.782Z,72.73
2019-03-11T14:15:10.289Z,72.50
2019-03-11T14:17:39.522Z,72.47
2019-03-11T14:20:09.871Z,72.45
2019-03-11T14:22:39.119Z,71.04
2019-03-11T14:25:08.672Z,71.12
2019-03-11T14:27:38.155Z,72.50
2019-03-11T14:30:08.662Z,72.03
2019-03-11T14:32:38.032Z,71.77
2019-03-11T14:35:08.209Z,71.52
2019-03-11T14:37:37.446Z,71.93
2019-03-11T14:40:07.436Z,71.16
2019-03-11T14:42:36.672Z,71.30
2019-03-11T14:45:08.494Z,71.47
2019-03-11T14:47:37.422Z,71.50
2019-03-11T14:50:07.450Z,71.23
2019-03-11T14:52:36.692Z,70.90
2019-03-11T14:55:06.345Z,71.73
2019-03-11T14:57:35.675Z,71.68
2019-03-11T15:00:05.280Z,71.70
2019-03-11T15:02:34.640Z,71.82
2019-03-11T15:05:03.869Z,71.67
2019-03-11T15:07:33.065Z,71.97
2019-03-11T15:10:02.309Z,72.44
2019-03-11T15:12:31.601Z,72.22
2019-03-11T15:15:01.392Z,71.97
2019-03-11T15:17:30.647Z,72.08
2019-03-11T15:20:01.778Z,72.22
2019-03-11T15:22:31.001Z,72.28
2019-03-11T15:25:00.409Z,72.87
2019-03-11T15:27:29.639Z,73.12
2019-03-11T15:29:58.973Z,73.15
2019-03-11T15:32:28.413Z,73.57
2019-03-11T15:34:57.629Z,73.75
2019-03-11T15:37:26.841Z,74.08
2019-03-11T15:39:56.121Z,74.46
2019-03-11T15:42:25.407Z,75.13
2019-03-11T15:44:56.676Z,74.80
2019-03-11T15:47:25.976Z,74.62
2019-03-11T15:49:55.308Z,74.19
2019-03-11T15:52:24.846Z,74.09
2019-03-11T15:54:54.088Z,74.19
2019-03-11T15:57:23.374Z,73.71
2019-03-11T15:59:52.680Z,73.75
2019-03-11T16:02:22.086Z,73.83
2019-03-11T16:04:51.316Z,73.40
2019-03-11T16:07:20.527Z,73.65
2019-03-11T16:09:49.743Z,73.98
2019-03-11T16:12:19.046Z,73.89
2019-03-11T16:14:50.060Z,74.01
2019-03-11T16:17:19.314Z,74.13
2019-03-11T16:19:48.902Z,74.46
2019-03-11T16:22:24.098Z,74.29
2019-03-11T16:24:49.215Z,74.50
2019-03-11T16:27:18.439Z,74.75
2019-03-11T16:29:47.779Z,74.69
2019-03-11T16:32:17.061Z,75.03
2019-03-11T16:34:46.276Z,75.46
2019-03-11T16:37:15.461Z,74.98
2019-03-11T16:39:44.676Z,74.53
2019-03-11T16:42:14.107Z,74.72
2019-03-11T16:44:43.488Z,75.17
2019-03-11T16:47:13.007Z,75.07
2019-03-11T16:49:42.379Z,74.70
2019-03-11T16:52:11.677Z,75.34
2019-03-11T16:54:40.905Z,75.01
2019-03-11T16:57:10.118Z,75.41
2019-03-11T16:59:39.666Z,75.15
2019-03-11T17:02:09.006Z,75.51
2019-03-11T17:04:38.306Z,75.75
2019-03-11T17:07:07.531Z,75.76
2019-03-11T17:09:36.820Z,75.87
2019-03-11T17:12:06.255Z,76.10
2019-03-11T17:14:35.494Z,76.19
2019-03-11T17:17:04.840Z,76.16
2019-03-11T17:19:34.135Z,76.01
2019-03-11T17:22:03.550Z,76.18
2019-03-11T17:24:33.086Z,76.31
2019-03-11T17:27:02.381Z,76.32
2019-03-11T17:29:31.605Z,76.30
2019-03-11T17:32:00.979Z,76.41
2019-03-11T17:34:30.705Z,76.18
2019-03-11T17:37:00.283Z,76.46
2019-03-11T17:39:29.584Z,76.65
2019-03-11T17:41:58.829Z,76.63
2019-03-11T17:44:31.141Z,76.77
2019-03-11T17:47:00.660Z,77.45
2019-03-11T17:49:30.537Z,77.23
2019-03-11T17:51:59.789Z,77.33
2019-03-11T17:54:29.227Z,77.20
2019-03-11T17:56:58.451Z,77.23
2019-03-11T17:59:27.892Z,77.60
2019-03-11T18:01:57.269Z,78.02
2019-03-11T18:04:26.586Z,77.81
2019-03-11T18:06:55.816Z,77.60
2019-03-11T18:09:25.035Z,77.82
2019-03-11T18:11:54.407Z,78.19
2019-03-11T18:14:23.655Z,77.91
2019-03-11T18:16:52.866Z,77.73
2019-03-11T18:19:22.132Z,78.33
2019-03-11T18:21:51.352Z,77.91
2019-03-11T18:24:20.652Z,77.96
2019-03-11T18:26:50.424Z,77.71
2019-03-11T18:29:19.737Z,77.88
2019-03-11T18:31:48.964Z,78.14
2019-03-11T18:34:18.304Z,78.24
2019-03-11T18:36:47.533Z,78.25
2019-03-11T18:39:19.128Z,78.14
2019-03-11T18:41:47.726Z,78.39
2019-03-11T18:44:17.133Z,78.32
2019-03-11T18:46:46.344Z,78.36
2019-03-11T18:49:15.616Z,78.07
2019-03-11T18:51:44.878Z,78.06
2019-03-11T18:54:14.258Z,77.47
2019-03-11T18:56:43.515Z,77.37
2019-03-11T18:59:12.743Z,76.59
2019-03-11T19:01:42.323Z,76.58
2019-03-11T19:04:11.590Z,77.03
2019-03-11T19:06:40.894Z,76.82
2019-03-11T19:09:10.207Z,76.97
2019-03-11T19:11:39.492Z,76.71
2019-03-11T19:14:08.732Z,76.15
2019-03-11T19:16:37.995Z,75.90
2019-03-11T19:19:07.236Z,75.66
2019-03-11T19:21:36.481Z,75.51
2019-03-11T19:24:05.881Z,75.16
2019-03-11T19:26:35.189Z,75.07
2019-03-11T19:29:04.547Z,74.23
2019-03-11T19:31:33.966Z,74.49
2019-03-11T19:34:03.429Z,74.36
2019-03-11T19:36:33.638Z,74.30
2019-03-11T19:39:03.396Z,74.13
2019-03-11T19:41:32.707Z,73.76
2019-03-11T19:44:02.059Z,72.96
2019-03-11T19:46:31.474Z,72.97
2019-03-11T19:49:00.779Z,72.86
2019-03-11T19:51:30.390Z,73.34
2019-03-11T19:54:00.175Z,73.51
2019-03-11T19:56:29.869Z,73.50
2019-03-11T19:58:59.808Z,73.50
2019-03-11T20:01:29.558Z,73.48
2019-03-11T20:03:58.769Z,73.55
2019-03-11T20:06:28.091Z,73.90
2019-03-11T20:08:57.373Z,74.08
2019-03-11T20:11:26.780Z,74.17
2019-03-11T20:13:56.164Z,74.29
2019-03-11T20:16:25.620Z,74.38
2019-03-11T20:18:54.964Z,74.43
2019-03-11T20:21:24.421Z,74.36
2019-03-11T20:23:53.710Z,74.49
2019-03-11T20:26:23.148Z,74.56
2019-03-11T20:28:52.513Z,74.47
2019-03-11T20:31:21.886Z,74.42
2019-03-11T20:33:51.176Z,74.12
2019-03-11T20:36:21.488Z,74.32
2019-03-11T20:38:51.189Z,74.13
2019-03-11T20:41:20.909Z,74.11
2019-03-11T20:43:50.559Z,74.11
2019-03-11T20:46:19.983Z,74.24
2019-03-11T20:48:49.246Z,74.17
2019-03-11T20:51:18.691Z,74.07
2019-03-11T20:53:48.033Z,74.12
2019-03-11T20:56:17.306Z,74.23
2019-03-11T20:58:46.592Z,74.06
2019-03-11T21:01:16.001Z,73.91
2019-03-11T21:03:45.309Z,73.34
2019-03-11T21:06:14.658Z,73.42
2019-03-11T21:08:45.620Z,73.20
2019-03-11T21:11:15.134Z,73.35
2019-03-11T21:13:44.500Z,73.19
2019-03-11T21:16:14.177Z,73.36
2019-03-11T21:18:43.452Z,73.38
2019-03-11T21:21:12.973Z,73.28
2019-03-11T21:23:42.371Z,73.46
2019-03-11T21:26:11.786Z,73.53
2019-03-11T21:28:41.072Z,73.55
2019-03-11T21:31:10.393Z,73.68
2019-03-11T21:33:39.748Z,73.62
2019-03-11T21:36:09.113Z,73.57
2019-03-11T21:38:38.434Z,73.50
2019-03-11T21:41:07.851Z,73.41
2019-03-11T21:43:37.185Z,73.58
2019-03-11T21:46:06.503Z,73.83
2019-03-11T21:48:35.824Z,73.93
2019-03-11T21:51:05.183Z,73.93
2019-03-11T21:53:34.860Z,74.16
2019-03-11T21:56:04.175Z,74.13
2019-03-11T21:58:33.516Z,74.11
2019-03-11T22:01:02.779Z,74.16
2019-03-11T22:03:32.064Z,74.31
2019-03-11T22:06:01.302Z,74.49
2019-03-11T22:08:30.686Z,74.56
2019-03-11T22:10:59.968Z,74.61
2019-03-11T22:13:29.376Z,74.85
2019-03-11T22:15:58.657Z,74.90
2019-03-11T22:18:27.972Z,74.83
2019-03-11T22:20:57.362Z,75.01
2019-03-11T22:23:26.595Z,75.26
2019-03-11T22:25:55.824Z,75.43
2019-03-11T22:28:25.153Z,75.31
2019-03-11T22:30:54.394Z,75.40
2019-03-11T22:33:23.675Z,75.24
2019-03-11T22:35:52.887Z,75.51
2019-03-11T22:38:22.163Z,75.57
2019-03-11T22:40:51.393Z,75.56
2019-03-11T22:43:20.611Z,75.61
2019-03-11T22:45:49.801Z,75.67
2019-03-11T22:48:20.916Z,75.81
2019-03-11T22:50:49.981Z,75.74
2019-03-11T22:53:19.217Z,75.75
2019-03-11T22:55:48.462Z,76.00
2019-03-11T22:58:17.710Z,75.93
2019-03-11T23:01:02.085Z,75.79
2019-03-11T23:03:31.334Z,75.92
2019-03-11T23:06:00.648Z,76.34
2019-03-11T23:08:29.973Z,75.98
2019-03-11T23:10:59.178Z,76.03
2019-03-11T23:13:28.381Z,76.01
2019-03-11T23:15:57.570Z,76.02
2019-03-11T23:18:26.755Z,76.06
2019-03-11T23:20:56.045Z,76.01
2019-03-11T23:23:25.265Z,76.11
2019-03-11T23:25:54.536Z,76.21
2019-03-11T23:28:23.722Z,76.21
2019-03-11T23:30:52.972Z,76.58
2019-03-11T23:33:22.164Z,76.43
2019-03-11T23:35:51.370Z,76.45
2019-03-11T23:38:20.595Z,76.46
2019-03-11T23:40:49.813Z,76.49
2019-03-11T23:43:19.045Z,76.80
2019-03-11T23:45:48.226Z,76.47
2019-03-11T23:48:17.451Z,76.41
2019-03-11T23:50:46.627Z,76.76
2019-03-11T23:53:15.965Z,76.71
2019-03-11T23:55:45.189Z,76.84
2019-03-11T23:58:14.420Z,76.69
